sensor_id;sensor_type;location;lat;lon;timestamp;temperature;humidity
5723;DHT22;2886;49.722;8.612;2022-09-29T00:02:12;9.80;99.90
5723;DHT22;2886;49.722;8.612;2022-09-29T00:04:37;9.80;99.90
5723;DHT22;2886;49.722;8.612;2022-09-29T00:07:03;9.70;99.90
5723;DHT22;2886;49.722;8.612;2022-09-29T00:09:29;9.70;99.90
5723;DHT22;2886;49.722;8.612;2022-09-29T00:11:55;9.60;99.90
5723;DHT22;2886;49.722;8.612;2022-09-29T00:14:22;9.60;99.90
5723;DHT22;2886;49.722;8.612;2022-09-29T00:16:48;9.60;99.90
5723;DHT22;2886;49.722;8.612;2022-09-29T00:19:14;9.60;99.90
5723;DHT22;2886;49.722;8.612;2022-09-29T00:21:40;9.60;99.90
5723;DHT22;2886;49.722;8.612;2022-09-29T00:24:05;9.70;99.90
5723;DHT22;2886;49.722;8.612;2022-09-29T00:26:31;9.70;99.90
5723;DHT22;2886;49.722;8.612;2022-09-29T00:28:58;9.80;99.90
5723;DHT22;2886;49.722;8.612;2022-09-29T00:31:28;9.90;99.90
5723;DHT22;2886;49.722;8.612;2022-09-29T00:33:54;9.90;99.90
5723;DHT22;2886;49.722;8.612;2022-09-29T00:36:21;10.00;99.90
5723;DHT22;2886;49.722;8.612;2022-09-29T00:38:48;10.00;99.90
5723;DHT22;2886;49.722;8.612;2022-09-29T00:41:18;9.90;99.90
5723;DHT22;2886;49.722;8.612;2022-09-29T00:43:57;10.00;99.90
5723;DHT22;2886;49.722;8.612;2022-09-29T00:51:47;10.00;99.90
5723;DHT22;2886;49.722;8.612;2022-09-29T00:54:15;9.90;99.90
5723;DHT22;2886;49.722;8.612;2022-09-29T00:56:43;9.90;99.90
5723;DHT22;2886;49.722;8.612;2022-09-29T00:59:13;9.90;99.90
5723;DHT22;2886;49.722;8.612;2022-09-29T01:01:42;9.80;99.90
5723;DHT22;2886;49.722;8.612;2022-09-29T01:04:11;9.80;99.90
5723;DHT22;2886;49.722;8.612;2022-09-29T01:06:39;9.70;99.90
5723;DHT22;2886;49.722;8.612;2022-09-29T01:09:16;9.70;99.90
5723;DHT22;2886;49.722;8.612;2022-09-29T01:11:42;9.60;99.90
5723;DHT22;2886;49.722;8.612;2022-09-29T01:14:10;9.50;99.90
5723;DHT22;2886;49.722;8.612;2022-09-29T01:16:36;9.50;99.90
5723;DHT22;2886;49.722;8.612;2022-09-29T01:36:18;9.20;99.90
5723;DHT22;2886;49.722;8.612;2022-09-29T01:44:36;9.10;99.90
5723;DHT22;2886;49.722;8.612;2022-09-29T01:49:46;9.10;99.90
5723;DHT22;2886;49.722;8.612;2022-09-29T01:52:13;9.00;99.90
5723;DHT22;2886;49.722;8.612;2022-09-29T01:54:48;8.90;99.90
5723;DHT22;2886;49.722;8.612;2022-09-29T01:57:25;9.00;99.90
5723;DHT22;2886;49.722;8.612;2022-09-29T02:02:36;8.90;99.90
5723;DHT22;2886;49.722;8.612;2022-09-29T02:05:10;8.90;99.90
5723;DHT22;2886;49.722;8.612;2022-09-29T02:07:43;8.90;99.90
5723;DHT22;2886;49.722;8.612;2022-09-29T02:10:17;8.80;99.90
5723;DHT22;2886;49.722;8.612;2022-09-29T02:12:44;8.70;99.90
5723;DHT22;2886;49.722;8.612;2022-09-29T02:15:15;8.70;99.90
5723;DHT22;2886;49.722;8.612;2022-09-29T02:17:47;8.70;99.90
5723;DHT22;2886;49.722;8.612;2022-09-29T02:20:14;8.70;99.90
5723;DHT22;2886;49.722;8.612;2022-09-29T02:22:41;8.60;99.90
5723;DHT22;2886;49.722;8.612;2022-09-29T02:25:12;8.60;99.90
5723;DHT22;2886;49.722;8.612;2022-09-29T02:27:41;8.60;99.90
5723;DHT22;2886;49.722;8.612;2022-09-29T02:30:08;8.50;99.90
5723;DHT22;2886;49.722;8.612;2022-09-29T02:32:35;8.50;99.90
5723;DHT22;2886;49.722;8.612;2022-09-29T02:35:05;8.40;99.90
5723;DHT22;2886;49.722;8.612;2022-09-29T02:40:08;8.40;99.90
5723;DHT22;2886;49.722;8.612;2022-09-29T02:45:33;8.40;99.90
5723;DHT22;2886;49.722;8.612;2022-09-29T02:56:48;8.50;99.90
5723;DHT22;2886;49.722;8.612;2022-09-29T03:00:17;8.50;99.90
5723;DHT22;2886;49.722;8.612;2022-09-29T03:02:37;8.50;99.90
5723;DHT22;2886;49.722;8.612;2022-09-29T03:05:15;8.50;99.90
5723;DHT22;2886;49.722;8.612;2022-09-29T03:07:42;8.50;99.90
5723;DHT22;2886;49.722;8.612;2022-09-29T03:10:09;8.50;99.90
5723;DHT22;2886;49.722;8.612;2022-09-29T03:12:36;8.50;99.90
5723;DHT22;2886;49.722;8.612;2022-09-29T03:15:03;8.50;99.90
5723;DHT22;2886;49.722;8.612;2022-09-29T03:17:29;8.50;99.90
5723;DHT22;2886;49.722;8.612;2022-09-29T03:19:55;8.40;99.90
5723;DHT22;2886;49.722;8.612;2022-09-29T03:22:22;8.40;99.90
5723;DHT22;2886;49.722;8.612;2022-09-29T03:24:48;8.40;99.90
5723;DHT22;2886;49.722;8.612;2022-09-29T03:27:14;8.40;99.90
5723;DHT22;2886;49.722;8.612;2022-09-29T03:29:40;8.30;99.90
5723;DHT22;2886;49.722;8.612;2022-09-29T03:32:05;8.20;99.90
5723;DHT22;2886;49.722;8.612;2022-09-29T03:34:32;8.20;99.90
5723;DHT22;2886;49.722;8.612;2022-09-29T03:36:58;8.30;99.90
5723;DHT22;2886;49.722;8.612;2022-09-29T03:39:24;8.20;99.90
5723;DHT22;2886;49.722;8.612;2022-09-29T03:41:51;8.20;99.90
5723;DHT22;2886;49.722;8.612;2022-09-29T03:44:17;8.20;99.90
5723;DHT22;2886;49.722;8.612;2022-09-29T03:46:43;8.10;99.90
5723;DHT22;2886;49.722;8.612;2022-09-29T03:49:10;8.10;99.90
5723;DHT22;2886;49.722;8.612;2022-09-29T03:51:37;8.00;99.90
5723;DHT22;2886;49.722;8.612;2022-09-29T03:54:02;7.90;99.90
5723;DHT22;2886;49.722;8.612;2022-09-29T03:56:28;7.80;99.90
5723;DHT22;2886;49.722;8.612;2022-09-29T03:58:54;7.80;99.90
5723;DHT22;2886;49.722;8.612;2022-09-29T04:01:19;7.70;99.90
5723;DHT22;2886;49.722;8.612;2022-09-29T04:03:45;7.70;99.90
5723;DHT22;2886;49.722;8.612;2022-09-29T04:06:11;7.70;99.90
5723;DHT22;2886;49.722;8.612;2022-09-29T04:08:37;7.70;99.90
5723;DHT22;2886;49.722;8.612;2022-09-29T04:11:03;7.80;99.90
5723;DHT22;2886;49.722;8.612;2022-09-29T04:13:29;7.80;99.90
5723;DHT22;2886;49.722;8.612;2022-09-29T04:16:03;7.80;99.90
5723;DHT22;2886;49.722;8.612;2022-09-29T04:18:29;7.80;99.90
5723;DHT22;2886;49.722;8.612;2022-09-29T04:20:56;7.90;99.90
5723;DHT22;2886;49.722;8.612;2022-09-29T04:23:28;7.90;99.90
5723;DHT22;2886;49.722;8.612;2022-09-29T04:25:58;7.90;99.90
5723;DHT22;2886;49.722;8.612;2022-09-29T04:28:24;7.90;99.90
5723;DHT22;2886;49.722;8.612;2022-09-29T04:30:51;7.90;99.90
5723;DHT22;2886;49.722;8.612;2022-09-29T04:33:16;7.80;99.90
5723;DHT22;2886;49.722;8.612;2022-09-29T04:35:42;7.80;99.90
5723;DHT22;2886;49.722;8.612;2022-09-29T04:38:08;7.70;99.90
5723;DHT22;2886;49.722;8.612;2022-09-29T04:40:37;7.60;99.90
5723;DHT22;2886;49.722;8.612;2022-09-29T04:43:03;7.50;99.90
5723;DHT22;2886;49.722;8.612;2022-09-29T04:45:29;7.40;99.90
5723;DHT22;2886;49.722;8.612;2022-09-29T04:47:56;7.40;99.90
5723;DHT22;2886;49.722;8.612;2022-09-29T04:50:22;7.30;99.90
5723;DHT22;2886;49.722;8.612;2022-09-29T04:52:47;7.30;99.90
5723;DHT22;2886;49.722;8.612;2022-09-29T04:55:13;7.30;99.90
5723;DHT22;2886;49.722;8.612;2022-09-29T04:57:41;7.20;99.90
5723;DHT22;2886;49.722;8.612;2022-09-29T05:00:09;7.20;99.90
5723;DHT22;2886;49.722;8.612;2022-09-29T05:02:35;7.20;99.90
5723;DHT22;2886;49.722;8.612;2022-09-29T05:05:01;7.20;99.90
5723;DHT22;2886;49.722;8.612;2022-09-29T05:07:27;7.10;99.90
5723;DHT22;2886;49.722;8.612;2022-09-29T05:09:53;7.00;99.90
5723;DHT22;2886;49.722;8.612;2022-09-29T05:12:19;7.00;99.90
5723;DHT22;2886;49.722;8.612;2022-09-29T05:14:45;6.90;99.90
5723;DHT22;2886;49.722;8.612;2022-09-29T05:17:11;6.90;99.90
5723;DHT22;2886;49.722;8.612;2022-09-29T05:19:37;6.80;99.90
5723;DHT22;2886;49.722;8.612;2022-09-29T05:22:02;6.80;99.90
5723;DHT22;2886;49.722;8.612;2022-09-29T05:24:28;6.80;99.90
5723;DHT22;2886;49.722;8.612;2022-09-29T05:26:55;6.80;99.90
5723;DHT22;2886;49.722;8.612;2022-09-29T05:29:20;6.90;99.90
5723;DHT22;2886;49.722;8.612;2022-09-29T05:31:48;7.10;99.90
5723;DHT22;2886;49.722;8.612;2022-09-29T05:34:13;7.10;99.90
5723;DHT22;2886;49.722;8.612;2022-09-29T05:36:39;7.20;99.90
5723;DHT22;2886;49.722;8.612;2022-09-29T05:39:05;7.20;99.90
5723;DHT22;2886;49.722;8.612;2022-09-29T05:41:30;7.30;99.90
5723;DHT22;2886;49.722;8.612;2022-09-29T05:43:57;7.40;99.90
5723;DHT22;2886;49.722;8.612;2022-09-29T05:46:24;7.40;99.90
5723;DHT22;2886;49.722;8.612;2022-09-29T05:48:50;7.40;99.90
5723;DHT22;2886;49.722;8.612;2022-09-29T05:51:18;7.50;99.90
5723;DHT22;2886;49.722;8.612;2022-09-29T05:53:45;7.50;99.90
5723;DHT22;2886;49.722;8.612;2022-09-29T05:56:12;7.50;99.90
5723;DHT22;2886;49.722;8.612;2022-09-29T05:58:39;7.50;99.90
5723;DHT22;2886;49.722;8.612;2022-09-29T06:01:07;7.50;99.90
5723;DHT22;2886;49.722;8.612;2022-09-29T06:03:34;7.60;99.90
5723;DHT22;2886;49.722;8.612;2022-09-29T06:06:17;7.70;99.90
5723;DHT22;2886;49.722;8.612;2022-09-29T06:08:44;7.80;99.90
5723;DHT22;2886;49.722;8.612;2022-09-29T06:11:13;7.90;99.90
5723;DHT22;2886;49.722;8.612;2022-09-29T06:13:44;8.00;99.90
5723;DHT22;2886;49.722;8.612;2022-09-29T06:16:10;8.00;99.90
5723;DHT22;2886;49.722;8.612;2022-09-29T06:18:36;8.00;99.90
5723;DHT22;2886;49.722;8.612;2022-09-29T06:21:03;8.10;99.90
5723;DHT22;2886;49.722;8.612;2022-09-29T06:23:29;8.10;99.90
5723;DHT22;2886;49.722;8.612;2022-09-29T06:25:57;8.10;99.90
5723;DHT22;2886;49.722;8.612;2022-09-29T06:28:23;8.10;99.90
5723;DHT22;2886;49.722;8.612;2022-09-29T06:30:49;8.20;99.90
5723;DHT22;2886;49.722;8.612;2022-09-29T06:33:14;8.30;99.90
5723;DHT22;2886;49.722;8.612;2022-09-29T06:35:46;8.40;99.90
5723;DHT22;2886;49.722;8.612;2022-09-29T06:38:30;8.40;99.90
5723;DHT22;2886;49.722;8.612;2022-09-29T06:40:55;8.40;99.90
5723;DHT22;2886;49.722;8.612;2022-09-29T06:43:21;8.30;99.90
5723;DHT22;2886;49.722;8.612;2022-09-29T06:45:47;8.30;99.90
5723;DHT22;2886;49.722;8.612;2022-09-29T06:48:12;8.40;99.90
5723;DHT22;2886;49.722;8.612;2022-09-29T06:50:38;8.40;99.90
5723;DHT22;2886;49.722;8.612;2022-09-29T06:53:04;8.40;99.90
5723;DHT22;2886;49.722;8.612;2022-09-29T06:55:30;8.50;99.90
5723;DHT22;2886;49.722;8.612;2022-09-29T06:57:55;8.80;99.90
5723;DHT22;2886;49.722;8.612;2022-09-29T07:00:21;9.10;99.90
5723;DHT22;2886;49.722;8.612;2022-09-29T07:02:46;9.20;99.90
5723;DHT22;2886;49.722;8.612;2022-09-29T07:05:12;9.50;99.90
5723;DHT22;2886;49.722;8.612;2022-09-29T07:07:39;9.60;99.90
5723;DHT22;2886;49.722;8.612;2022-09-29T07:10:05;9.70;99.90
5723;DHT22;2886;49.722;8.612;2022-09-29T07:12:31;9.80;99.90
5723;DHT22;2886;49.722;8.612;2022-09-29T07:14:57;9.90;99.90
5723;DHT22;2886;49.722;8.612;2022-09-29T07:17:22;9.90;99.90
5723;DHT22;2886;49.722;8.612;2022-09-29T07:19:48;10.00;99.90
5723;DHT22;2886;49.722;8.612;2022-09-29T07:22:13;10.10;99.90
5723;DHT22;2886;49.722;8.612;2022-09-29T07:24:39;10.10;99.90
5723;DHT22;2886;49.722;8.612;2022-09-29T07:27:05;10.10;99.90
5723;DHT22;2886;49.722;8.612;2022-09-29T07:29:33;10.20;99.90
5723;DHT22;2886;49.722;8.612;2022-09-29T07:31:59;10.20;99.90
5723;DHT22;2886;49.722;8.612;2022-09-29T07:34:25;10.20;99.90
5723;DHT22;2886;49.722;8.612;2022-09-29T07:36:51;10.20;99.90
5723;DHT22;2886;49.722;8.612;2022-09-29T07:39:18;10.30;99.90
5723;DHT22;2886;49.722;8.612;2022-09-29T07:41:44;10.60;99.90
5723;DHT22;2886;49.722;8.612;2022-09-29T07:44:09;11.00;99.90
5723;DHT22;2886;49.722;8.612;2022-09-29T07:46:35;11.30;99.90
5723;DHT22;2886;49.722;8.612;2022-09-29T07:49:01;11.50;99.90
5723;DHT22;2886;49.722;8.612;2022-09-29T07:51:27;11.40;99.90
5723;DHT22;2886;49.722;8.612;2022-09-29T07:53:52;11.40;99.90
5723;DHT22;2886;49.722;8.612;2022-09-29T07:56:21;11.40;99.90
5723;DHT22;2886;49.722;8.612;2022-09-29T07:58:48;11.40;99.90
5723;DHT22;2886;49.722;8.612;2022-09-29T08:01:15;11.40;99.90
5723;DHT22;2886;49.722;8.612;2022-09-29T08:03:49;11.40;99.90
5723;DHT22;2886;49.722;8.612;2022-09-29T08:06:15;11.50;99.90
5723;DHT22;2886;49.722;8.612;2022-09-29T08:08:42;11.50;99.90
5723;DHT22;2886;49.722;8.612;2022-09-29T08:11:10;11.70;99.90
5723;DHT22;2886;49.722;8.612;2022-09-29T08:13:36;12.00;99.90
5723;DHT22;2886;49.722;8.612;2022-09-29T08:16:05;12.00;99.90
5723;DHT22;2886;49.722;8.612;2022-09-29T08:18:33;12.00;99.90
5723;DHT22;2886;49.722;8.612;2022-09-29T08:20:59;12.10;99.90
5723;DHT22;2886;49.722;8.612;2022-09-29T08:23:25;12.20;99.90
5723;DHT22;2886;49.722;8.612;2022-09-29T08:26:06;12.30;99.90
5723;DHT22;2886;49.722;8.612;2022-09-29T08:28:34;12.40;99.90
5723;DHT22;2886;49.722;8.612;2022-09-29T08:31:14;12.40;99.90
5723;DHT22;2886;49.722;8.612;2022-09-29T08:33:44;12.50;99.90
5723;DHT22;2886;49.722;8.612;2022-09-29T08:36:09;12.40;99.90
5723;DHT22;2886;49.722;8.612;2022-09-29T08:38:42;12.40;99.90
5723;DHT22;2886;49.722;8.612;2022-09-29T08:41:38;12.40;99.90
5723;DHT22;2886;49.722;8.612;2022-09-29T08:44:18;12.40;99.90
5723;DHT22;2886;49.722;8.612;2022-09-29T08:47:14;12.50;99.90
5723;DHT22;2886;49.722;8.612;2022-09-29T08:52:16;12.80;99.90
5723;DHT22;2886;49.722;8.612;2022-09-29T08:54:45;12.90;99.90
5723;DHT22;2886;49.722;8.612;2022-09-29T08:57:17;13.00;99.90
5723;DHT22;2886;49.722;8.612;2022-09-29T08:59:55;13.10;99.90
5723;DHT22;2886;49.722;8.612;2022-09-29T09:08:05;13.50;99.90
5723;DHT22;2886;49.722;8.612;2022-09-29T09:10:57;13.80;99.90
5723;DHT22;2886;49.722;8.612;2022-09-29T09:16:26;14.10;99.90
5723;DHT22;2886;49.722;8.612;2022-09-29T09:19:18;14.30;99.90
5723;DHT22;2886;49.722;8.612;2022-09-29T09:22:40;14.50;99.90
5723;DHT22;2886;49.722;8.612;2022-09-29T09:27:46;14.90;99.90
5723;DHT22;2886;49.722;8.612;2022-09-29T09:30:18;15.00;99.90
5723;DHT22;2886;49.722;8.612;2022-09-29T09:33:00;15.00;99.90
5723;DHT22;2886;49.722;8.612;2022-09-29T09:35:46;15.10;99.90
5723;DHT22;2886;49.722;8.612;2022-09-29T09:38:21;15.20;99.90
5723;DHT22;2886;49.722;8.612;2022-09-29T09:40:52;15.50;99.90
5723;DHT22;2886;49.722;8.612;2022-09-29T09:45:59;16.40;99.90
5723;DHT22;2886;49.722;8.612;2022-09-29T09:48:41;16.60;98.40
5723;DHT22;2886;49.722;8.612;2022-09-29T09:53:52;17.30;96.20
5723;DHT22;2886;49.722;8.612;2022-09-29T09:59:47;17.90;87.40
5723;DHT22;2886;49.722;8.612;2022-09-29T10:02:15;18.00;83.30
5723;DHT22;2886;49.722;8.612;2022-09-29T10:04:42;17.90;83.20
5723;DHT22;2886;49.722;8.612;2022-09-29T10:07:09;17.40;90.00
5723;DHT22;2886;49.722;8.612;2022-09-29T10:09:34;17.20;91.80
5723;DHT22;2886;49.722;8.612;2022-09-29T10:12:00;16.80;95.80
5723;DHT22;2886;49.722;8.612;2022-09-29T10:14:27;16.40;97.00
5723;DHT22;2886;49.722;8.612;2022-09-29T10:16:56;16.30;99.90
5723;DHT22;2886;49.722;8.612;2022-09-29T10:19:56;16.30;97.90
5723;DHT22;2886;49.722;8.612;2022-09-29T10:22:23;16.50;99.00
5723;DHT22;2886;49.722;8.612;2022-09-29T10:25:14;16.80;95.90
5723;DHT22;2886;49.722;8.612;2022-09-29T10:27:42;17.20;91.80
5723;DHT22;2886;49.722;8.612;2022-09-29T10:30:24;17.30;89.90
5723;DHT22;2886;49.722;8.612;2022-09-29T10:32:58;17.00;91.40
5723;DHT22;2886;49.722;8.612;2022-09-29T10:35:32;16.90;93.20
5723;DHT22;2886;49.722;8.612;2022-09-29T10:38:05;16.90;94.20
5723;DHT22;2886;49.722;8.612;2022-09-29T10:40:33;16.90;92.40
5723;DHT22;2886;49.722;8.612;2022-09-29T10:43:21;16.90;89.90
5723;DHT22;2886;49.722;8.612;2022-09-29T10:45:48;16.80;91.30
5723;DHT22;2886;49.722;8.612;2022-09-29T10:48:15;16.70;92.90
5723;DHT22;2886;49.722;8.612;2022-09-29T10:50:49;16.70;93.90
5723;DHT22;2886;49.722;8.612;2022-09-29T10:53:48;16.80;93.30
5723;DHT22;2886;49.722;8.612;2022-09-29T10:56:17;17.00;92.20
5723;DHT22;2886;49.722;8.612;2022-09-29T10:58:50;17.00;89.70
5723;DHT22;2886;49.722;8.612;2022-09-29T11:01:18;16.80;91.90
5723;DHT22;2886;49.722;8.612;2022-09-29T11:03:48;16.60;94.70
5723;DHT22;2886;49.722;8.612;2022-09-29T11:06:15;16.60;95.90
5723;DHT22;2886;49.722;8.612;2022-09-29T11:09:04;16.70;92.80
5723;DHT22;2886;49.722;8.612;2022-09-29T11:11:34;16.60;92.30
5723;DHT22;2886;49.722;8.612;2022-09-29T11:14:00;16.70;92.60
5723;DHT22;2886;49.722;8.612;2022-09-29T11:16:31;16.50;94.50
5723;DHT22;2886;49.722;8.612;2022-09-29T11:19:13;16.40;94.70
5723;DHT22;2886;49.722;8.612;2022-09-29T11:30:06;16.40;96.00
5723;DHT22;2886;49.722;8.612;2022-09-29T11:33:12;16.40;95.80
5723;DHT22;2886;49.722;8.612;2022-09-29T11:39:02;16.50;93.00
5723;DHT22;2886;49.722;8.612;2022-09-29T11:47:02;16.10;96.30
5723;DHT22;2886;49.722;8.612;2022-09-29T11:55:06;15.70;99.90
5723;DHT22;2886;49.722;8.612;2022-09-29T12:00:15;15.30;99.90
5723;DHT22;2886;49.722;8.612;2022-09-29T12:02:48;15.60;99.90
5723;DHT22;2886;49.722;8.612;2022-09-29T12:15:57;15.80;96.80
5723;DHT22;2886;49.722;8.612;2022-09-29T12:18:31;15.70;98.60
5723;DHT22;2886;49.722;8.612;2022-09-29T12:21:00;15.60;97.60
5723;DHT22;2886;49.722;8.612;2022-09-29T12:23:29;15.40;99.90
5723;DHT22;2886;49.722;8.612;2022-09-29T12:26:06;15.10;99.90
5723;DHT22;2886;49.722;8.612;2022-09-29T12:29:00;15.10;99.30
5723;DHT22;2886;49.722;8.612;2022-09-29T12:31:32;15.20;98.60
5723;DHT22;2886;49.722;8.612;2022-09-29T12:34:16;15.20;99.60
5723;DHT22;2886;49.722;8.612;2022-09-29T12:45:16;15.50;96.50
5723;DHT22;2886;49.722;8.612;2022-09-29T12:47:56;15.70;95.90
5723;DHT22;2886;49.722;8.612;2022-09-29T12:50:38;15.90;94.20
5723;DHT22;2886;49.722;8.612;2022-09-29T12:53:09;16.10;93.70
5723;DHT22;2886;49.722;8.612;2022-09-29T12:58:42;15.90;92.20
5723;DHT22;2886;49.722;8.612;2022-09-29T13:01:23;15.80;90.30
5723;DHT22;2886;49.722;8.612;2022-09-29T13:29:49;16.30;90.30
5723;DHT22;2886;49.722;8.612;2022-09-29T13:32:19;16.40;83.90
5723;DHT22;2886;49.722;8.612;2022-09-29T13:34:50;16.50;81.00
5723;DHT22;2886;49.722;8.612;2022-09-29T13:37:20;16.60;78.90
5723;DHT22;2886;49.722;8.612;2022-09-29T13:40:03;16.80;70.30
5723;DHT22;2886;49.722;8.612;2022-09-29T13:45:16;16.60;72.40
5723;DHT22;2886;49.722;8.612;2022-09-29T13:48:46;16.30;73.40
5723;DHT22;2886;49.722;8.612;2022-09-29T13:50:51;15.90;89.50
5723;DHT22;2886;49.722;8.612;2022-09-29T13:59:02;15.60;92.20
5723;DHT22;2886;49.722;8.612;2022-09-29T14:01:34;15.80;90.80
5723;DHT22;2886;49.722;8.612;2022-09-29T14:04:41;15.80;85.50
5723;DHT22;2886;49.722;8.612;2022-09-29T14:07:11;15.70;83.50
5723;DHT22;2886;49.722;8.612;2022-09-29T14:09:44;15.60;79.00
5723;DHT22;2886;49.722;8.612;2022-09-29T14:12:18;15.60;83.10
5723;DHT22;2886;49.722;8.612;2022-09-29T14:14:52;15.50;85.00
5723;DHT22;2886;49.722;8.612;2022-09-29T14:17:34;15.60;83.00
5723;DHT22;2886;49.722;8.612;2022-09-29T14:20:19;15.70;79.20
5723;DHT22;2886;49.722;8.612;2022-09-29T14:23:04;15.90;77.20
5723;DHT22;2886;49.722;8.612;2022-09-29T14:28:12;15.90;76.50
5723;DHT22;2886;49.722;8.612;2022-09-29T14:30:46;15.90;76.40
5723;DHT22;2886;49.722;8.612;2022-09-29T14:33:36;15.80;74.40
5723;DHT22;2886;49.722;8.612;2022-09-29T14:36:11;15.70;76.30
5723;DHT22;2886;49.722;8.612;2022-09-29T14:38:45;15.40;76.60
5723;DHT22;2886;49.722;8.612;2022-09-29T14:41:25;15.30;76.30
5723;DHT22;2886;49.722;8.612;2022-09-29T14:43:55;15.30;77.50
5723;DHT22;2886;49.722;8.612;2022-09-29T14:47:01;15.20;78.40
5723;DHT22;2886;49.722;8.612;2022-09-29T14:56:16;15.00;85.40
5723;DHT22;2886;49.722;8.612;2022-09-29T15:03:47;14.70;89.10
5723;DHT22;2886;49.722;8.612;2022-09-29T15:06:16;14.70;87.20
5723;DHT22;2886;49.722;8.612;2022-09-29T15:11:33;14.70;91.00
5723;DHT22;2886;49.722;8.612;2022-09-29T15:17:04;14.70;90.40
5723;DHT22;2886;49.722;8.612;2022-09-29T15:19:45;14.70;91.60
5723;DHT22;2886;49.722;8.612;2022-09-29T15:27:58;14.60;91.50
5723;DHT22;2886;49.722;8.612;2022-09-29T15:30:25;14.40;90.20
5723;DHT22;2886;49.722;8.612;2022-09-29T15:32:52;14.40;91.70
5723;DHT22;2886;49.722;8.612;2022-09-29T15:35:23;14.40;88.50
5723;DHT22;2886;49.722;8.612;2022-09-29T15:40:21;14.40;91.30
5723;DHT22;2886;49.722;8.612;2022-09-29T15:42:47;14.40;90.00
5723;DHT22;2886;49.722;8.612;2022-09-29T15:45:19;14.30;92.00
5723;DHT22;2886;49.722;8.612;2022-09-29T15:47:46;14.30;95.30
5723;DHT22;2886;49.722;8.612;2022-09-29T15:50:21;14.30;99.90
5723;DHT22;2886;49.722;8.612;2022-09-29T15:52:48;14.30;99.90
5723;DHT22;2886;49.722;8.612;2022-09-29T15:55:22;14.30;99.90
5723;DHT22;2886;49.722;8.612;2022-09-29T15:57:49;14.30;99.90
5723;DHT22;2886;49.722;8.612;2022-09-29T16:05:32;14.10;99.90
5723;DHT22;2886;49.722;8.612;2022-09-29T16:08:17;14.10;99.90
5723;DHT22;2886;49.722;8.612;2022-09-29T16:10:52;14.00;99.90
5723;DHT22;2886;49.722;8.612;2022-09-29T16:13:31;14.00;99.90
5723;DHT22;2886;49.722;8.612;2022-09-29T16:16:26;13.90;99.90
5723;DHT22;2886;49.722;8.612;2022-09-29T16:18:54;13.90;99.90
5723;DHT22;2886;49.722;8.612;2022-09-29T16:21:24;13.90;99.90
5723;DHT22;2886;49.722;8.612;2022-09-29T16:24:17;13.80;99.90
5723;DHT22;2886;49.722;8.612;2022-09-29T16:26:54;13.80;99.90
5723;DHT22;2886;49.722;8.612;2022-09-29T16:29:34;13.80;99.90
5723;DHT22;2886;49.722;8.612;2022-09-29T16:38:16;13.70;99.90
5723;DHT22;2886;49.722;8.612;2022-09-29T16:40:44;13.70;99.90
5723;DHT22;2886;49.722;8.612;2022-09-29T16:43:26;13.60;99.90
5723;DHT22;2886;49.722;8.612;2022-09-29T16:45:53;13.50;99.90
5723;DHT22;2886;49.722;8.612;2022-09-29T16:48:25;13.40;99.90
5723;DHT22;2886;49.722;8.612;2022-09-29T16:51:00;13.40;99.90
5723;DHT22;2886;49.722;8.612;2022-09-29T16:53:31;13.30;99.90
5723;DHT22;2886;49.722;8.612;2022-09-29T16:56:00;13.30;99.90
5723;DHT22;2886;49.722;8.612;2022-09-29T16:58:27;13.30;99.90
5723;DHT22;2886;49.722;8.612;2022-09-29T17:00:53;13.20;99.90
5723;DHT22;2886;49.722;8.612;2022-09-29T17:03:19;13.20;99.90
5723;DHT22;2886;49.722;8.612;2022-09-29T17:05:45;13.10;99.90
5723;DHT22;2886;49.722;8.612;2022-09-29T17:08:26;13.10;99.90
5723;DHT22;2886;49.722;8.612;2022-09-29T17:10:55;13.00;99.90
5723;DHT22;2886;49.722;8.612;2022-09-29T17:13:22;13.00;99.90
5723;DHT22;2886;49.722;8.612;2022-09-29T17:15:50;13.00;99.90
5723;DHT22;2886;49.722;8.612;2022-09-29T17:18:18;13.00;99.90
5723;DHT22;2886;49.722;8.612;2022-09-29T17:20:44;13.00;99.90
5723;DHT22;2886;49.722;8.612;2022-09-29T17:23:10;13.00;99.90
5723;DHT22;2886;49.722;8.612;2022-09-29T17:25:39;12.90;99.90
5723;DHT22;2886;49.722;8.612;2022-09-29T17:28:13;12.90;99.90
5723;DHT22;2886;49.722;8.612;2022-09-29T17:30:47;12.80;99.90
5723;DHT22;2886;49.722;8.612;2022-09-29T17:33:14;12.70;99.90
5723;DHT22;2886;49.722;8.612;2022-09-29T17:35:46;12.70;99.90
5723;DHT22;2886;49.722;8.612;2022-09-29T17:38:14;12.60;99.90
5723;DHT22;2886;49.722;8.612;2022-09-29T17:40:50;12.60;99.90
5723;DHT22;2886;49.722;8.612;2022-09-29T17:43:17;12.50;99.90
5723;DHT22;2886;49.722;8.612;2022-09-29T17:45:43;12.50;99.90
5723;DHT22;2886;49.722;8.612;2022-09-29T17:48:10;12.50;99.90
5723;DHT22;2886;49.722;8.612;2022-09-29T17:50:45;12.40;99.90
5723;DHT22;2886;49.722;8.612;2022-09-29T17:53:11;12.40;99.90
5723;DHT22;2886;49.722;8.612;2022-09-29T17:55:40;12.30;99.90
5723;DHT22;2886;49.722;8.612;2022-09-29T17:58:08;12.30;99.90
5723;DHT22;2886;49.722;8.612;2022-09-29T18:00:37;12.30;99.90
5723;DHT22;2886;49.722;8.612;2022-09-29T18:03:08;12.20;99.90
5723;DHT22;2886;49.722;8.612;2022-09-29T18:05:36;12.10;99.90
5723;DHT22;2886;49.722;8.612;2022-09-29T18:08:04;12.00;99.90
5723;DHT22;2886;49.722;8.612;2022-09-29T18:13:08;11.90;99.90
5723;DHT22;2886;49.722;8.612;2022-09-29T18:15:34;11.80;99.90
5723;DHT22;2886;49.722;8.612;2022-09-29T18:18:02;11.70;99.90
5723;DHT22;2886;49.722;8.612;2022-09-29T18:20:31;11.70;99.90
5723;DHT22;2886;49.722;8.612;2022-09-29T18:22:57;11.70;99.90
5723;DHT22;2886;49.722;8.612;2022-09-29T18:25:27;11.70;99.90
5723;DHT22;2886;49.722;8.612;2022-09-29T18:27:55;11.70;99.90
5723;DHT22;2886;49.722;8.612;2022-09-29T18:30:24;11.80;99.90
5723;DHT22;2886;49.722;8.612;2022-09-29T18:32:52;11.70;99.90
5723;DHT22;2886;49.722;8.612;2022-09-29T18:35:24;11.70;99.90
5723;DHT22;2886;49.722;8.612;2022-09-29T18:37:50;11.60;99.90
5723;DHT22;2886;49.722;8.612;2022-09-29T18:40:16;11.60;99.90
5723;DHT22;2886;49.722;8.612;2022-09-29T18:42:44;11.70;99.90
5723;DHT22;2886;49.722;8.612;2022-09-29T18:45:14;11.60;99.90
5723;DHT22;2886;49.722;8.612;2022-09-29T18:47:43;11.50;99.90
5723;DHT22;2886;49.722;8.612;2022-09-29T18:50:21;11.60;99.90
5723;DHT22;2886;49.722;8.612;2022-09-29T18:52:48;11.50;99.90
5723;DHT22;2886;49.722;8.612;2022-09-29T18:55:15;11.50;99.90
5723;DHT22;2886;49.722;8.612;2022-09-29T18:57:43;11.50;99.90
5723;DHT22;2886;49.722;8.612;2022-09-29T19:00:11;11.50;99.90
5723;DHT22;2886;49.722;8.612;2022-09-29T19:02:39;11.40;99.90
5723;DHT22;2886;49.722;8.612;2022-09-29T19:05:05;11.40;99.90
5723;DHT22;2886;49.722;8.612;2022-09-29T19:07:32;11.40;99.90
5723;DHT22;2886;49.722;8.612;2022-09-29T19:09:58;11.30;99.90
5723;DHT22;2886;49.722;8.612;2022-09-29T19:12:24;11.20;99.90
5723;DHT22;2886;49.722;8.612;2022-09-29T19:14:55;11.20;99.90
5723;DHT22;2886;49.722;8.612;2022-09-29T19:17:26;11.10;99.90
5723;DHT22;2886;49.722;8.612;2022-09-29T19:19:52;11.20;99.90
5723;DHT22;2886;49.722;8.612;2022-09-29T19:22:18;11.20;99.90
5723;DHT22;2886;49.722;8.612;2022-09-29T19:24:44;11.10;99.90
5723;DHT22;2886;49.722;8.612;2022-09-29T19:27:11;11.10;99.90
5723;DHT22;2886;49.722;8.612;2022-09-29T19:29:36;11.10;99.90
5723;DHT22;2886;49.722;8.612;2022-09-29T19:32:02;11.20;99.90
5723;DHT22;2886;49.722;8.612;2022-09-29T19:34:30;11.20;99.90
5723;DHT22;2886;49.722;8.612;2022-09-29T19:36:56;11.10;99.90
5723;DHT22;2886;49.722;8.612;2022-09-29T19:39:21;11.10;99.90
5723;DHT22;2886;49.722;8.612;2022-09-29T19:41:48;11.10;99.90
5723;DHT22;2886;49.722;8.612;2022-09-29T19:44:14;11.10;99.90